Anderson, CA

8:38 PM PDT on September 17, 2014 (GMT -0700)
North Anderson | Change Station
CLOSE
Current Station
Personal Weather Station
Location: Anderson, CA
Elevation: 459 ft
Nearby Weather Stations

Elev 459 ft 40.46 °N, 122.30 °W | Updated 0 second ago

Partly Cloudy
Partly Cloudy
83.4 °F
Feels Like 82 °F
N
1.1
Wind Variable Wind from SW
Gusts 1.1 mph

Today
High -- | Low -- °F
--% Chance of Precip.
Yesterday
High -- | Low -- °F
Precip. -- in
6:52 AM 7:14 PM
Waning Crescent, 30% visible
Pressure 29.61 in
Visibility 10.0 miles
Clouds Clear
Heat Index 82 °F
Dew Point 53 °F
Humidity 35%
Rainfall 0.00 in
Snow Depth 0 in , 0 in , 0 in
UV 0 out of 12
Pollen 6.60 out of 12
Air Quality Not available.
Flu Activity Not available.
METAR KRDD 180253Z 15013KT 10SM CLR 29/10 A2962 RMK AO2 SLP025 T02890100 56003

More Conditions Fewer Conditions

Pressure 29.61 in
Visibility 10.0 miles
Clouds Clear
Heat Index 82 °F
Dew Point 53 °F
Humidity 35%
Rainfall 0.00 in
Snow Depth 0 in , 0 in , 0 in
UV 0 out of 12
Pollen 6.60 out of 12
Air Quality Not available.
Flu Activity Not available.
METAR KRDD 180253Z 15013KT 10SM CLR 29/10 A2962 RMK AO2 SLP025 T02890100 56003

More Conditions Fewer Conditions

10-Day Weather Forecast

Almanac

Astronomy

Sep. 17, 2014 Rise Set
Actual Time 6:52 AM PDT 7:14 PM PDT
Civil Twilight 6:24 AM PDT 7:41 PM PDT
Nautical Twilight 5:52 AM PDT 8:13 PM PDT
Astronomical Twilight 5:19 AM PDT 8:46 PM PDT
Moon 12:55 AM PDT (9/17) 3:29 PM PDT (9/17)
Length of Visible Light 13h 17m
Length of Day
12h 22m
Tomorrow will be 2m 39s shorter.
Waning Crescent, 30% of the Moon is Illuminated
Today
Waning Crescent
Sep 24
New
Oct 1
First Quarter
Oct 8
Full
Oct 15
Last Quarter

Today's Extremes

State Highs State Lows

Community

WunderPhotos

Upload Photos

1,754,283 photos uploaded!

Nearby

Snow Depth

Station Depth Elevation
Hagan's Meadow 0 in 8000 ft
Monitor Pass 0 in 8350 ft
Echo Peak 0 in 7800 ft
CSS Lab 2 in 6900 ft
Burnside Lake 0 in 8139 ft

Earthquake Activity

City Distance Mag. Time & Date
Cobb, California 118 miles 2.7 1:23 PM PDT
2014-09-16
Minimum magnitude displayed is 2.5.

Coastal Water Temperatures

Place Temperature
No Stations Reporting

Nearby Weather Stations